sensor_id;sensor_type;location;lat;lon;timestamp;temperature;humidity
37412;DHT22;23278;52.110;6.050;2023-07-31T00:01:25;15.20;99.90
37412;DHT22;23278;52.110;6.050;2023-07-31T00:03:50;15.20;99.90
37412;DHT22;23278;52.110;6.050;2023-07-31T00:06:16;15.20;99.90
37412;DHT22;23278;52.110;6.050;2023-07-31T00:08:42;15.20;99.90
37412;DHT22;23278;52.110;6.050;2023-07-31T00:11:08;15.20;99.90
37412;DHT22;23278;52.110;6.050;2023-07-31T00:13:34;15.20;99.90
37412;DHT22;23278;52.110;6.050;2023-07-31T00:16:00;15.20;99.90
37412;DHT22;23278;52.110;6.050;2023-07-31T00:18:26;15.20;99.90
37412;DHT22;23278;52.110;6.050;2023-07-31T00:20:51;15.30;99.90
37412;DHT22;23278;52.110;6.050;2023-07-31T00:23:17;15.30;99.90
37412;DHT22;23278;52.110;6.050;2023-07-31T00:25:43;15.30;99.90
37412;DHT22;23278;52.110;6.050;2023-07-31T00:28:10;15.30;99.90
37412;DHT22;23278;52.110;6.050;2023-07-31T00:30:35;15.30;99.90
37412;DHT22;23278;52.110;6.050;2023-07-31T00:33:02;15.40;99.90
37412;DHT22;23278;52.110;6.050;2023-07-31T00:35:29;15.40;99.90
37412;DHT22;23278;52.110;6.050;2023-07-31T00:37:57;15.40;99.90
37412;DHT22;23278;52.110;6.050;2023-07-31T00:40:23;15.40;99.90
37412;DHT22;23278;52.110;6.050;2023-07-31T00:42:49;15.40;99.90
37412;DHT22;23278;52.110;6.050;2023-07-31T00:45:15;15.50;99.90
37412;DHT22;23278;52.110;6.050;2023-07-31T00:47:41;15.50;99.90
37412;DHT22;23278;52.110;6.050;2023-07-31T00:50:07;15.50;99.90
37412;DHT22;23278;52.110;6.050;2023-07-31T00:52:35;15.50;99.90
37412;DHT22;23278;52.110;6.050;2023-07-31T00:55:01;15.60;99.90
37412;DHT22;23278;52.110;6.050;2023-07-31T00:57:27;15.50;99.90
37412;DHT22;23278;52.110;6.050;2023-07-31T00:59:53;15.60;99.90
37412;DHT22;23278;52.110;6.050;2023-07-31T01:02:19;15.60;99.90
37412;DHT22;23278;52.110;6.050;2023-07-31T01:04:45;15.60;99.90
37412;DHT22;23278;52.110;6.050;2023-07-31T01:07:50;15.60;99.90
37412;DHT22;23278;52.110;6.050;2023-07-31T01:10:23;15.60;99.90
37412;DHT22;23278;52.110;6.050;2023-07-31T01:12:52;15.60;99.90
37412;DHT22;23278;52.110;6.050;2023-07-31T01:15:19;15.60;99.90
37412;DHT22;23278;52.110;6.050;2023-07-31T01:17:45;15.70;99.90
37412;DHT22;23278;52.110;6.050;2023-07-31T01:20:20;15.70;99.90
37412;DHT22;23278;52.110;6.050;2023-07-31T01:28:03;15.90;99.90
37412;DHT22;23278;52.110;6.050;2023-07-31T01:30:37;15.90;99.90
37412;DHT22;23278;52.110;6.050;2023-07-31T01:33:03;15.90;99.90
37412;DHT22;23278;52.110;6.050;2023-07-31T01:35:34;16.00;99.90
37412;DHT22;23278;52.110;6.050;2023-07-31T01:38:00;16.00;99.90
37412;DHT22;23278;52.110;6.050;2023-07-31T01:40:26;16.00;99.90
37412;DHT22;23278;52.110;6.050;2023-07-31T01:42:52;16.10;99.90
37412;DHT22;23278;52.110;6.050;2023-07-31T01:45:18;16.10;99.90
37412;DHT22;23278;52.110;6.050;2023-07-31T01:47:44;16.10;99.90
37412;DHT22;23278;52.110;6.050;2023-07-31T01:50:11;16.20;99.90
37412;DHT22;23278;52.110;6.050;2023-07-31T01:52:37;16.20;99.90
37412;DHT22;23278;52.110;6.050;2023-07-31T01:55:04;16.30;99.90
37412;DHT22;23278;52.110;6.050;2023-07-31T01:57:30;16.20;99.90
37412;DHT22;23278;52.110;6.050;2023-07-31T01:59:55;16.30;99.90
37412;DHT22;23278;52.110;6.050;2023-07-31T02:02:22;16.30;99.90
37412;DHT22;23278;52.110;6.050;2023-07-31T02:04:49;16.30;99.90
37412;DHT22;23278;52.110;6.050;2023-07-31T02:07:15;16.30;99.90
37412;DHT22;23278;52.110;6.050;2023-07-31T02:09:41;16.30;99.90
37412;DHT22;23278;52.110;6.050;2023-07-31T02:12:07;16.30;99.90
37412;DHT22;23278;52.110;6.050;2023-07-31T02:14:34;16.40;99.90
37412;DHT22;23278;52.110;6.050;2023-07-31T02:17:00;16.30;99.90
37412;DHT22;23278;52.110;6.050;2023-07-31T02:19:26;16.30;99.90
37412;DHT22;23278;52.110;6.050;2023-07-31T02:21:52;16.30;99.90
37412;DHT22;23278;52.110;6.050;2023-07-31T02:24:18;16.30;99.90
37412;DHT22;23278;52.110;6.050;2023-07-31T02:26:44;16.30;99.90
37412;DHT22;23278;52.110;6.050;2023-07-31T02:29:10;16.30;99.90
37412;DHT22;23278;52.110;6.050;2023-07-31T02:31:36;16.30;99.90
37412;DHT22;23278;52.110;6.050;2023-07-31T02:34:02;16.40;99.90
37412;DHT22;23278;52.110;6.050;2023-07-31T02:36:28;16.30;99.90
37412;DHT22;23278;52.110;6.050;2023-07-31T02:38:55;16.30;99.90
37412;DHT22;23278;52.110;6.050;2023-07-31T02:41:21;16.30;99.90
37412;DHT22;23278;52.110;6.050;2023-07-31T02:43:47;16.30;99.90
37412;DHT22;23278;52.110;6.050;2023-07-31T02:46:12;16.30;99.90
37412;DHT22;23278;52.110;6.050;2023-07-31T02:48:38;16.30;99.90
37412;DHT22;23278;52.110;6.050;2023-07-31T02:51:04;16.30;99.90
37412;DHT22;23278;52.110;6.050;2023-07-31T02:53:30;16.20;99.90
37412;DHT22;23278;52.110;6.050;2023-07-31T02:55:56;16.20;99.90
37412;DHT22;23278;52.110;6.050;2023-07-31T02:58:22;16.10;99.90
37412;DHT22;23278;52.110;6.050;2023-07-31T03:00:48;16.10;99.90
37412;DHT22;23278;52.110;6.050;2023-07-31T03:03:14;16.10;99.90
37412;DHT22;23278;52.110;6.050;2023-07-31T03:05:40;16.10;99.90
37412;DHT22;23278;52.110;6.050;2023-07-31T03:08:06;16.10;99.90
37412;DHT22;23278;52.110;6.050;2023-07-31T03:10:32;16.10;99.90
37412;DHT22;23278;52.110;6.050;2023-07-31T03:13:01;16.10;99.90
37412;DHT22;23278;52.110;6.050;2023-07-31T03:15:27;16.10;99.90
37412;DHT22;23278;52.110;6.050;2023-07-31T03:17:53;16.20;99.90
37412;DHT22;23278;52.110;6.050;2023-07-31T03:20:19;16.20;99.90
37412;DHT22;23278;52.110;6.050;2023-07-31T03:22:45;16.20;99.90
37412;DHT22;23278;52.110;6.050;2023-07-31T03:25:11;16.20;99.90
37412;DHT22;23278;52.110;6.050;2023-07-31T03:27:38;16.20;99.90
37412;DHT22;23278;52.110;6.050;2023-07-31T03:30:04;16.20;99.90
37412;DHT22;23278;52.110;6.050;2023-07-31T03:32:31;16.20;99.90
37412;DHT22;23278;52.110;6.050;2023-07-31T03:34:57;16.20;99.90
37412;DHT22;23278;52.110;6.050;2023-07-31T03:37:24;16.20;99.90
37412;DHT22;23278;52.110;6.050;2023-07-31T03:39:50;16.20;99.90
37412;DHT22;23278;52.110;6.050;2023-07-31T03:42:16;16.20;99.90
37412;DHT22;23278;52.110;6.050;2023-07-31T03:44:42;16.20;99.90
37412;DHT22;23278;52.110;6.050;2023-07-31T03:47:09;16.20;99.90
37412;DHT22;23278;52.110;6.050;2023-07-31T03:49:37;16.20;99.90
37412;DHT22;23278;52.110;6.050;2023-07-31T03:52:04;16.20;99.90
37412;DHT22;23278;52.110;6.050;2023-07-31T03:54:30;16.10;99.90
37412;DHT22;23278;52.110;6.050;2023-07-31T03:56:57;16.10;99.90
37412;DHT22;23278;52.110;6.050;2023-07-31T03:59:22;16.10;99.90
37412;DHT22;23278;52.110;6.050;2023-07-31T04:01:48;16.10;99.90
37412;DHT22;23278;52.110;6.050;2023-07-31T04:04:14;16.00;99.90
37412;DHT22;23278;52.110;6.050;2023-07-31T04:06:40;16.00;99.90
37412;DHT22;23278;52.110;6.050;2023-07-31T04:09:07;16.00;99.90
37412;DHT22;23278;52.110;6.050;2023-07-31T04:11:33;16.00;99.90
37412;DHT22;23278;52.110;6.050;2023-07-31T04:13:58;16.00;99.90
37412;DHT22;23278;52.110;6.050;2023-07-31T04:16:24;16.00;99.90
37412;DHT22;23278;52.110;6.050;2023-07-31T04:18:50;16.00;99.90
37412;DHT22;23278;52.110;6.050;2023-07-31T04:21:16;16.00;99.90
37412;DHT22;23278;52.110;6.050;2023-07-31T04:23:43;16.00;99.90
37412;DHT22;23278;52.110;6.050;2023-07-31T04:26:09;16.00;99.90
37412;DHT22;23278;52.110;6.050;2023-07-31T04:28:35;16.00;99.90
37412;DHT22;23278;52.110;6.050;2023-07-31T04:31:00;16.00;99.90
37412;DHT22;23278;52.110;6.050;2023-07-31T04:33:26;16.00;99.90
37412;DHT22;23278;52.110;6.050;2023-07-31T04:35:53;16.00;99.90
37412;DHT22;23278;52.110;6.050;2023-07-31T04:38:21;16.00;99.90
37412;DHT22;23278;52.110;6.050;2023-07-31T04:40:47;16.00;99.90
37412;DHT22;23278;52.110;6.050;2023-07-31T04:43:15;16.00;99.90
37412;DHT22;23278;52.110;6.050;2023-07-31T04:45:46;16.00;99.90
37412;DHT22;23278;52.110;6.050;2023-07-31T04:48:15;16.00;99.90
37412;DHT22;23278;52.110;6.050;2023-07-31T04:50:44;16.00;99.90
37412;DHT22;23278;52.110;6.050;2023-07-31T04:53:11;16.00;99.90
37412;DHT22;23278;52.110;6.050;2023-07-31T04:55:37;16.00;99.90
37412;DHT22;23278;52.110;6.050;2023-07-31T04:58:06;16.00;99.90
37412;DHT22;23278;52.110;6.050;2023-07-31T05:00:32;16.00;99.90
37412;DHT22;23278;52.110;6.050;2023-07-31T05:03:01;16.00;99.90
37412;DHT22;23278;52.110;6.050;2023-07-31T05:05:28;16.00;99.90
37412;DHT22;23278;52.110;6.050;2023-07-31T05:07:54;16.00;99.90
37412;DHT22;23278;52.110;6.050;2023-07-31T05:10:20;16.00;99.90
37412;DHT22;23278;52.110;6.050;2023-07-31T05:12:46;16.00;99.90
37412;DHT22;23278;52.110;6.050;2023-07-31T05:15:12;16.10;99.90
37412;DHT22;23278;52.110;6.050;2023-07-31T05:17:38;16.10;99.90
37412;DHT22;23278;52.110;6.050;2023-07-31T05:20:05;16.10;99.90
37412;DHT22;23278;52.110;6.050;2023-07-31T05:22:31;16.20;99.90
37412;DHT22;23278;52.110;6.050;2023-07-31T05:24:57;16.20;99.90
37412;DHT22;23278;52.110;6.050;2023-07-31T05:27:23;16.20;99.90
37412;DHT22;23278;52.110;6.050;2023-07-31T05:29:49;16.20;99.90
37412;DHT22;23278;52.110;6.050;2023-07-31T05:32:15;16.20;99.90
37412;DHT22;23278;52.110;6.050;2023-07-31T05:34:41;16.20;99.90
37412;DHT22;23278;52.110;6.050;2023-07-31T05:37:10;16.20;99.90
37412;DHT22;23278;52.110;6.050;2023-07-31T05:39:37;16.20;99.90
37412;DHT22;23278;52.110;6.050;2023-07-31T05:42:03;16.20;99.90
37412;DHT22;23278;52.110;6.050;2023-07-31T05:44:29;16.10;99.90
37412;DHT22;23278;52.110;6.050;2023-07-31T05:46:55;16.10;99.90
37412;DHT22;23278;52.110;6.050;2023-07-31T05:49:21;16.10;99.90
37412;DHT22;23278;52.110;6.050;2023-07-31T05:51:47;16.10;99.90
37412;DHT22;23278;52.110;6.050;2023-07-31T05:54:13;16.10;99.90
37412;DHT22;23278;52.110;6.050;2023-07-31T05:56:39;16.10;99.90
37412;DHT22;23278;52.110;6.050;2023-07-31T05:59:05;16.00;99.90
37412;DHT22;23278;52.110;6.050;2023-07-31T06:01:31;16.00;99.90
37412;DHT22;23278;52.110;6.050;2023-07-31T06:03:57;16.00;99.90
37412;DHT22;23278;52.110;6.050;2023-07-31T06:06:22;16.00;99.90
37412;DHT22;23278;52.110;6.050;2023-07-31T06:08:49;15.90;99.90
37412;DHT22;23278;52.110;6.050;2023-07-31T06:11:15;15.90;99.90
37412;DHT22;23278;52.110;6.050;2023-07-31T06:13:41;15.90;99.90
37412;DHT22;23278;52.110;6.050;2023-07-31T06:16:07;15.80;99.90
37412;DHT22;23278;52.110;6.050;2023-07-31T06:18:33;15.90;99.90
37412;DHT22;23278;52.110;6.050;2023-07-31T06:20:59;15.90;99.90
37412;DHT22;23278;52.110;6.050;2023-07-31T06:23:25;15.90;99.90
37412;DHT22;23278;52.110;6.050;2023-07-31T06:25:51;15.90;99.90
37412;DHT22;23278;52.110;6.050;2023-07-31T06:28:17;15.90;99.90
37412;DHT22;23278;52.110;6.050;2023-07-31T06:30:43;15.90;99.90
37412;DHT22;23278;52.110;6.050;2023-07-31T06:33:09;16.00;99.90
37412;DHT22;23278;52.110;6.050;2023-07-31T06:35:34;16.10;99.90
37412;DHT22;23278;52.110;6.050;2023-07-31T06:38:01;16.20;99.90
37412;DHT22;23278;52.110;6.050;2023-07-31T06:40:28;16.20;99.90
37412;DHT22;23278;52.110;6.050;2023-07-31T06:42:54;16.20;99.90
37412;DHT22;23278;52.110;6.050;2023-07-31T06:45:20;16.30;99.90
37412;DHT22;23278;52.110;6.050;2023-07-31T06:47:47;16.30;99.90
37412;DHT22;23278;52.110;6.050;2023-07-31T06:50:13;16.40;99.90
37412;DHT22;23278;52.110;6.050;2023-07-31T06:52:39;16.40;99.90
37412;DHT22;23278;52.110;6.050;2023-07-31T06:55:19;16.40;99.90
37412;DHT22;23278;52.110;6.050;2023-07-31T06:57:46;16.40;99.90
37412;DHT22;23278;52.110;6.050;2023-07-31T07:00:13;16.40;99.90
37412;DHT22;23278;52.110;6.050;2023-07-31T07:02:39;16.50;99.90
37412;DHT22;23278;52.110;6.050;2023-07-31T07:05:06;16.50;99.90
37412;DHT22;23278;52.110;6.050;2023-07-31T07:07:33;16.50;99.90
37412;DHT22;23278;52.110;6.050;2023-07-31T07:09:59;16.60;99.90
37412;DHT22;23278;52.110;6.050;2023-07-31T07:12:30;16.60;99.90
37412;DHT22;23278;52.110;6.050;2023-07-31T07:14:57;16.60;99.90
37412;DHT22;23278;52.110;6.050;2023-07-31T07:17:24;16.70;99.90
37412;DHT22;23278;52.110;6.050;2023-07-31T07:19:50;16.70;99.90
37412;DHT22;23278;52.110;6.050;2023-07-31T07:22:17;16.70;99.90
37412;DHT22;23278;52.110;6.050;2023-07-31T07:24:43;16.70;99.90
37412;DHT22;23278;52.110;6.050;2023-07-31T07:27:08;16.70;99.90
37412;DHT22;23278;52.110;6.050;2023-07-31T07:29:35;16.80;99.90
37412;DHT22;23278;52.110;6.050;2023-07-31T07:32:01;16.80;99.90
37412;DHT22;23278;52.110;6.050;2023-07-31T07:34:28;17.00;99.90
37412;DHT22;23278;52.110;6.050;2023-07-31T07:36:54;17.10;99.90
37412;DHT22;23278;52.110;6.050;2023-07-31T07:39:20;17.20;99.90
37412;DHT22;23278;52.110;6.050;2023-07-31T07:41:47;17.20;99.90
37412;DHT22;23278;52.110;6.050;2023-07-31T07:44:13;17.20;99.90
37412;DHT22;23278;52.110;6.050;2023-07-31T07:46:40;17.20;99.90
37412;DHT22;23278;52.110;6.050;2023-07-31T07:49:06;17.30;99.90
37412;DHT22;23278;52.110;6.050;2023-07-31T07:51:32;17.40;99.90
37412;DHT22;23278;52.110;6.050;2023-07-31T07:53:58;17.40;99.90
37412;DHT22;23278;52.110;6.050;2023-07-31T07:56:26;17.40;99.90
37412;DHT22;23278;52.110;6.050;2023-07-31T07:58:52;17.30;99.90
37412;DHT22;23278;52.110;6.050;2023-07-31T08:01:18;17.20;99.90
37412;DHT22;23278;52.110;6.050;2023-07-31T08:03:44;17.30;99.90
37412;DHT22;23278;52.110;6.050;2023-07-31T08:06:10;17.20;99.90
37412;DHT22;23278;52.110;6.050;2023-07-31T08:08:36;17.20;99.90
37412;DHT22;23278;52.110;6.050;2023-07-31T08:11:02;17.10;99.90
37412;DHT22;23278;52.110;6.050;2023-07-31T08:13:29;17.20;99.90
37412;DHT22;23278;52.110;6.050;2023-07-31T08:15:55;17.20;99.90
37412;DHT22;23278;52.110;6.050;2023-07-31T08:18:21;17.20;99.90
37412;DHT22;23278;52.110;6.050;2023-07-31T08:20:47;17.20;99.90
37412;DHT22;23278;52.110;6.050;2023-07-31T08:23:13;17.20;99.90
37412;DHT22;23278;52.110;6.050;2023-07-31T08:25:39;17.20;99.90
37412;DHT22;23278;52.110;6.050;2023-07-31T08:28:05;17.20;99.90
37412;DHT22;23278;52.110;6.050;2023-07-31T08:30:32;17.30;99.90
37412;DHT22;23278;52.110;6.050;2023-07-31T08:32:59;17.30;99.90
37412;DHT22;23278;52.110;6.050;2023-07-31T08:35:26;17.30;99.90
37412;DHT22;23278;52.110;6.050;2023-07-31T08:37:54;17.30;99.90
37412;DHT22;23278;52.110;6.050;2023-07-31T08:40:20;17.30;99.90
37412;DHT22;23278;52.110;6.050;2023-07-31T08:42:49;17.30;99.90
37412;DHT22;23278;52.110;6.050;2023-07-31T08:45:19;17.30;99.90
37412;DHT22;23278;52.110;6.050;2023-07-31T08:47:48;17.30;99.90
37412;DHT22;23278;52.110;6.050;2023-07-31T08:50:16;17.30;99.90
37412;DHT22;23278;52.110;6.050;2023-07-31T08:52:42;17.40;99.90
37412;DHT22;23278;52.110;6.050;2023-07-31T08:55:09;17.40;99.90
37412;DHT22;23278;52.110;6.050;2023-07-31T08:57:36;17.60;99.90
37412;DHT22;23278;52.110;6.050;2023-07-31T09:00:04;17.70;99.90
37412;DHT22;23278;52.110;6.050;2023-07-31T09:02:56;17.80;99.90
37412;DHT22;23278;52.110;6.050;2023-07-31T09:05:23;17.90;99.90
37412;DHT22;23278;52.110;6.050;2023-07-31T09:07:58;18.10;99.90
37412;DHT22;23278;52.110;6.050;2023-07-31T09:10:24;18.10;99.90
37412;DHT22;23278;52.110;6.050;2023-07-31T09:12:53;18.10;99.90
37412;DHT22;23278;52.110;6.050;2023-07-31T09:15:20;18.00;99.90
37412;DHT22;23278;52.110;6.050;2023-07-31T09:17:47;18.00;99.90
37412;DHT22;23278;52.110;6.050;2023-07-31T09:20:18;17.90;99.90
37412;DHT22;23278;52.110;6.050;2023-07-31T09:22:48;17.90;99.90
37412;DHT22;23278;52.110;6.050;2023-07-31T09:25:25;17.90;99.90
37412;DHT22;23278;52.110;6.050;2023-07-31T09:28:00;17.90;99.90
37412;DHT22;23278;52.110;6.050;2023-07-31T09:30:27;17.90;99.90
37412;DHT22;23278;52.110;6.050;2023-07-31T09:33:11;18.00;99.90
37412;DHT22;23278;52.110;6.050;2023-07-31T09:35:36;18.10;99.90
37412;DHT22;23278;52.110;6.050;2023-07-31T09:38:11;18.10;99.90
37412;DHT22;23278;52.110;6.050;2023-07-31T09:40:39;18.10;99.90
37412;DHT22;23278;52.110;6.050;2023-07-31T09:43:10;18.10;99.90
37412;DHT22;23278;52.110;6.050;2023-07-31T09:45:38;18.10;99.90
37412;DHT22;23278;52.110;6.050;2023-07-31T09:48:16;18.00;99.90
37412;DHT22;23278;52.110;6.050;2023-07-31T09:50:44;18.00;99.90
37412;DHT22;23278;52.110;6.050;2023-07-31T09:53:10;18.00;99.90
37412;DHT22;23278;52.110;6.050;2023-07-31T09:55:37;17.90;99.90
37412;DHT22;23278;52.110;6.050;2023-07-31T09:58:05;17.90;99.90
37412;DHT22;23278;52.110;6.050;2023-07-31T10:00:32;17.90;99.90
37412;DHT22;23278;52.110;6.050;2023-07-31T10:03:00;17.90;99.90
37412;DHT22;23278;52.110;6.050;2023-07-31T10:05:40;17.80;99.90
37412;DHT22;23278;52.110;6.050;2023-07-31T10:08:09;17.80;99.90
37412;DHT22;23278;52.110;6.050;2023-07-31T10:10:36;17.80;99.90
37412;DHT22;23278;52.110;6.050;2023-07-31T10:13:04;17.80;99.90
37412;DHT22;23278;52.110;6.050;2023-07-31T10:15:32;17.90;99.90
37412;DHT22;23278;52.110;6.050;2023-07-31T10:17:58;18.00;99.90
37412;DHT22;23278;52.110;6.050;2023-07-31T10:20:26;18.00;99.90
37412;DHT22;23278;52.110;6.050;2023-07-31T10:22:54;18.10;99.90
37412;DHT22;23278;52.110;6.050;2023-07-31T10:25:21;18.10;99.90
37412;DHT22;23278;52.110;6.050;2023-07-31T10:27:47;18.10;99.90
37412;DHT22;23278;52.110;6.050;2023-07-31T10:30:16;18.20;99.90
37412;DHT22;23278;52.110;6.050;2023-07-31T10:32:44;18.20;99.90
37412;DHT22;23278;52.110;6.050;2023-07-31T10:35:11;18.20;99.90
37412;DHT22;23278;52.110;6.050;2023-07-31T10:37:39;18.30;99.90
37412;DHT22;23278;52.110;6.050;2023-07-31T10:40:16;18.30;99.90
37412;DHT22;23278;52.110;6.050;2023-07-31T10:43:01;18.20;99.90
37412;DHT22;23278;52.110;6.050;2023-07-31T10:45:39;18.20;99.90
37412;DHT22;23278;52.110;6.050;2023-07-31T10:48:15;18.20;99.90
37412;DHT22;23278;52.110;6.050;2023-07-31T10:50:56;18.30;99.90
37412;DHT22;23278;52.110;6.050;2023-07-31T10:53:29;18.50;99.90
37412;DHT22;23278;52.110;6.050;2023-07-31T10:56:03;18.60;99.90
37412;DHT22;23278;52.110;6.050;2023-07-31T10:58:30;18.50;99.90
37412;DHT22;23278;52.110;6.050;2023-07-31T11:00:59;18.50;99.90
37412;DHT22;23278;52.110;6.050;2023-07-31T11:03:40;18.50;99.90
37412;DHT22;23278;52.110;6.050;2023-07-31T11:06:07;18.50;99.90
37412;DHT22;23278;52.110;6.050;2023-07-31T11:08:36;18.60;99.90
37412;DHT22;23278;52.110;6.050;2023-07-31T11:11:09;18.70;99.90
37412;DHT22;23278;52.110;6.050;2023-07-31T11:13:53;19.00;99.90
37412;DHT22;23278;52.110;6.050;2023-07-31T11:16:22;19.20;99.90
37412;DHT22;23278;52.110;6.050;2023-07-31T11:18:48;19.30;99.90
37412;DHT22;23278;52.110;6.050;2023-07-31T11:21:16;19.30;99.90
37412;DHT22;23278;52.110;6.050;2023-07-31T11:23:47;19.40;99.90
37412;DHT22;23278;52.110;6.050;2023-07-31T11:26:13;19.40;99.90
37412;DHT22;23278;52.110;6.050;2023-07-31T11:28:40;19.50;99.90
37412;DHT22;23278;52.110;6.050;2023-07-31T11:31:09;19.50;99.90
37412;DHT22;23278;52.110;6.050;2023-07-31T11:33:35;19.50;99.90
37412;DHT22;23278;52.110;6.050;2023-07-31T11:36:01;19.50;99.90
37412;DHT22;23278;52.110;6.050;2023-07-31T11:38:30;19.60;99.90
37412;DHT22;23278;52.110;6.050;2023-07-31T11:41:01;19.80;99.90
37412;DHT22;23278;52.110;6.050;2023-07-31T11:43:33;20.10;99.90
37412;DHT22;23278;52.110;6.050;2023-07-31T11:46:01;20.30;99.90
37412;DHT22;23278;52.110;6.050;2023-07-31T11:48:34;20.30;99.90
37412;DHT22;23278;52.110;6.050;2023-07-31T11:51:06;20.10;99.90
37412;DHT22;23278;52.110;6.050;2023-07-31T11:53:38;19.70;99.90
37412;DHT22;23278;52.110;6.050;2023-07-31T11:56:07;19.50;99.90
37412;DHT22;23278;52.110;6.050;2023-07-31T11:58:35;19.30;99.90
37412;DHT22;23278;52.110;6.050;2023-07-31T12:01:02;19.10;99.90
37412;DHT22;23278;52.110;6.050;2023-07-31T12:03:28;18.90;99.90
37412;DHT22;23278;52.110;6.050;2023-07-31T12:05:54;18.90;99.90
37412;DHT22;23278;52.110;6.050;2023-07-31T12:08:24;18.80;99.90
37412;DHT22;23278;52.110;6.050;2023-07-31T12:10:52;18.80;99.90
37412;DHT22;23278;52.110;6.050;2023-07-31T12:13:32;18.90;99.90
37412;DHT22;23278;52.110;6.050;2023-07-31T12:16:04;18.90;99.90
37412;DHT22;23278;52.110;6.050;2023-07-31T12:18:33;18.90;99.90
37412;DHT22;23278;52.110;6.050;2023-07-31T12:21:00;18.90;99.90
37412;DHT22;23278;52.110;6.050;2023-07-31T12:23:29;18.90;99.90
37412;DHT22;23278;52.110;6.050;2023-07-31T12:26:09;18.90;99.90
37412;DHT22;23278;52.110;6.050;2023-07-31T12:28:44;18.90;99.90
37412;DHT22;23278;52.110;6.050;2023-07-31T12:33:39;18.90;99.90
37412;DHT22;23278;52.110;6.050;2023-07-31T12:36:13;18.90;99.90
37412;DHT22;23278;52.110;6.050;2023-07-31T12:38:40;18.90;99.90
37412;DHT22;23278;52.110;6.050;2023-07-31T12:41:07;18.80;99.90
37412;DHT22;23278;52.110;6.050;2023-07-31T12:43:34;18.90;99.90
37412;DHT22;23278;52.110;6.050;2023-07-31T12:46:00;18.80;99.90
37412;DHT22;23278;52.110;6.050;2023-07-31T12:48:26;18.90;99.90
37412;DHT22;23278;52.110;6.050;2023-07-31T12:50:52;18.90;99.90
37412;DHT22;23278;52.110;6.050;2023-07-31T12:53:17;19.00;99.90
37412;DHT22;23278;52.110;6.050;2023-07-31T12:55:43;19.10;99.90
37412;DHT22;23278;52.110;6.050;2023-07-31T12:58:09;19.10;99.90
37412;DHT22;23278;52.110;6.050;2023-07-31T13:00:35;19.10;99.90
37412;DHT22;23278;52.110;6.050;2023-07-31T13:03:02;19.10;99.90
37412;DHT22;23278;52.110;6.050;2023-07-31T13:05:29;19.00;99.90
37412;DHT22;23278;52.110;6.050;2023-07-31T13:07:55;18.80;99.90
37412;DHT22;23278;52.110;6.050;2023-07-31T13:10:22;18.90;99.90
37412;DHT22;23278;52.110;6.050;2023-07-31T13:12:49;18.90;99.90
37412;DHT22;23278;52.110;6.050;2023-07-31T13:15:15;18.90;99.90
37412;DHT22;23278;52.110;6.050;2023-07-31T13:17:41;18.80;99.90
37412;DHT22;23278;52.110;6.050;2023-07-31T13:20:07;18.90;99.90
37412;DHT22;23278;52.110;6.050;2023-07-31T13:22:34;19.10;99.90
37412;DHT22;23278;52.110;6.050;2023-07-31T13:25:00;19.00;99.90
37412;DHT22;23278;52.110;6.050;2023-07-31T13:27:26;19.00;99.90
37412;DHT22;23278;52.110;6.050;2023-07-31T13:29:52;19.00;99.90
37412;DHT22;23278;52.110;6.050;2023-07-31T13:32:19;19.00;99.90
37412;DHT22;23278;52.110;6.050;2023-07-31T13:34:46;19.00;99.90
37412;DHT22;23278;52.110;6.050;2023-07-31T13:37:13;19.00;99.90
37412;DHT22;23278;52.110;6.050;2023-07-31T13:39:39;19.10;99.90
37412;DHT22;23278;52.110;6.050;2023-07-31T13:42:06;19.10;99.90
37412;DHT22;23278;52.110;6.050;2023-07-31T13:44:37;19.10;99.90
37412;DHT22;23278;52.110;6.050;2023-07-31T13:47:03;19.20;99.90
37412;DHT22;23278;52.110;6.050;2023-07-31T13:49:29;19.30;99.90
37412;DHT22;23278;52.110;6.050;2023-07-31T13:51:56;19.40;99.90
37412;DHT22;23278;52.110;6.050;2023-07-31T13:54:23;19.50;99.90
37412;DHT22;23278;52.110;6.050;2023-07-31T13:56:49;19.50;99.90
37412;DHT22;23278;52.110;6.050;2023-07-31T13:59:16;19.40;99.90
37412;DHT22;23278;52.110;6.050;2023-07-31T14:01:43;19.30;99.90
37412;DHT22;23278;52.110;6.050;2023-07-31T14:04:09;19.30;99.90
37412;DHT22;23278;52.110;6.050;2023-07-31T14:06:35;19.30;99.90
37412;DHT22;23278;52.110;6.050;2023-07-31T14:09:02;19.30;99.90
37412;DHT22;23278;52.110;6.050;2023-07-31T14:11:30;19.20;99.90
37412;DHT22;23278;52.110;6.050;2023-07-31T14:13:56;19.10;99.90
37412;DHT22;23278;52.110;6.050;2023-07-31T14:16:23;19.10;99.90
37412;DHT22;23278;52.110;6.050;2023-07-31T14:18:49;19.00;99.90
37412;DHT22;23278;52.110;6.050;2023-07-31T14:21:15;19.00;99.90
37412;DHT22;23278;52.110;6.050;2023-07-31T14:23:42;19.00;99.90
37412;DHT22;23278;52.110;6.050;2023-07-31T14:26:08;18.90;99.90
37412;DHT22;23278;52.110;6.050;2023-07-31T14:28:34;19.00;99.90
37412;DHT22;23278;52.110;6.050;2023-07-31T14:31:00;18.90;99.90
37412;DHT22;23278;52.110;6.050;2023-07-31T14:33:25;18.90;99.90
37412;DHT22;23278;52.110;6.050;2023-07-31T14:35:52;18.90;99.90
37412;DHT22;23278;52.110;6.050;2023-07-31T14:38:18;18.90;99.90
37412;DHT22;23278;52.110;6.050;2023-07-31T14:40:44;18.90;99.90
37412;DHT22;23278;52.110;6.050;2023-07-31T14:43:10;18.90;99.90
37412;DHT22;23278;52.110;6.050;2023-07-31T14:45:36;18.90;99.90
37412;DHT22;23278;52.110;6.050;2023-07-31T14:48:02;18.90;99.90
37412;DHT22;23278;52.110;6.050;2023-07-31T14:50:28;18.90;99.90
37412;DHT22;23278;52.110;6.050;2023-07-31T14:52:55;18.80;99.90
37412;DHT22;23278;52.110;6.050;2023-07-31T14:55:21;18.80;99.90
37412;DHT22;23278;52.110;6.050;2023-07-31T14:57:47;18.80;99.90
37412;DHT22;23278;52.110;6.050;2023-07-31T15:00:14;18.80;99.90
37412;DHT22;23278;52.110;6.050;2023-07-31T15:02:40;18.80;99.90
37412;DHT22;23278;52.110;6.050;2023-07-31T15:05:06;18.80;99.90
37412;DHT22;23278;52.110;6.050;2023-07-31T15:07:33;18.80;99.90
37412;DHT22;23278;52.110;6.050;2023-07-31T15:10:00;18.80;99.90
37412;DHT22;23278;52.110;6.050;2023-07-31T15:12:27;18.80;99.90
37412;DHT22;23278;52.110;6.050;2023-07-31T15:14:53;18.80;99.90
37412;DHT22;23278;52.110;6.050;2023-07-31T15:17:19;18.70;99.90
37412;DHT22;23278;52.110;6.050;2023-07-31T15:19:45;18.70;99.90
37412;DHT22;23278;52.110;6.050;2023-07-31T15:22:11;18.70;99.90
37412;DHT22;23278;52.110;6.050;2023-07-31T15:24:37;18.70;99.90
37412;DHT22;23278;52.110;6.050;2023-07-31T15:27:03;18.70;99.90
37412;DHT22;23278;52.110;6.050;2023-07-31T15:29:32;18.70;99.90
37412;DHT22;23278;52.110;6.050;2023-07-31T15:32:04;18.70;99.90
37412;DHT22;23278;52.110;6.050;2023-07-31T15:34:30;18.70;99.90
37412;DHT22;23278;52.110;6.050;2023-07-31T15:36:56;18.60;99.90
37412;DHT22;23278;52.110;6.050;2023-07-31T15:39:22;18.60;99.90